Archival Weather

Chicago O'Hare International

Chicago, Illinois (KORD)

Report from: Wednesday, February 16, 2022 12:51 PM CST
Current time: Saturday, February 4, 2023 10:28 PM CST

Current weather
Weather history
Weather forecast

Temperature10.6°C (51.1°F)
Dew point6.1°C (43.0°F)
Winds 15 kts (7.7 m/s, 17.3 mph) South-Southwest (210°)
Wind gusts 30 kts (15.4 m/s, 34.5 mph)
Peak wind 32 kts (16.5 m/s, 36.8 mph) Southwest (220°) at 12:04
Visibility10 mi. (16.1 km)
Clouds Scattered clouds 3,900 ft. (1,189 m)
Ceiling: Overcast 5,500 ft. (1,676 m)
Altimeter29.76 in.Hg (1008 mB)
Relative humidity74 %
Density altitude-203 ft. (-62 m)
Sea-level pressure100.8 kPa (1008 mB, 29.77 in.Hg)
Remarks Automated weather observing station with precipitation discriminator
Flight conditions Visual Meteorological Conditions
Raw dataKORD 161851Z 21015G30KT 10SM SCT039 OVC055 11/06 A2976 RMK AO2 PK WND 22032/1804 SLP080 T01060061
An unhandled exception has occurred. See browser dev tools for details. Reload 🗙